sensor_id;sensor_type;location;lat;lon;timestamp;P1;durP1;ratioP1;P2;durP2;ratioP2
26335;SDS011;14047;50.936;4.654;2022-10-16T00:01:23;4.30;;;1.10;;
26335;SDS011;14047;50.936;4.654;2022-10-16T00:03:51;2.10;;;0.82;;
26335;SDS011;14047;50.936;4.654;2022-10-16T00:06:19;1.05;;;0.70;;
26335;SDS011;14047;50.936;4.654;2022-10-16T00:08:45;2.25;;;0.98;;
26335;SDS011;14047;50.936;4.654;2022-10-16T00:11:16;2.28;;;0.77;;
26335;SDS011;14047;50.936;4.654;2022-10-16T00:13:45;1.25;;;0.77;;
26335;SDS011;14047;50.936;4.654;2022-10-16T00:16:11;2.70;;;0.80;;
26335;SDS011;14047;50.936;4.654;2022-10-16T00:18:38;4.53;;;0.70;;
26335;SDS011;14047;50.936;4.654;2022-10-16T00:21:05;2.78;;;0.98;;
26335;SDS011;14047;50.936;4.654;2022-10-16T00:23:39;1.65;;;0.80;;
26335;SDS011;14047;50.936;4.654;2022-10-16T00:26:07;5.32;;;0.90;;
26335;SDS011;14047;50.936;4.654;2022-10-16T00:28:37;1.40;;;0.63;;
26335;SDS011;14047;50.936;4.654;2022-10-16T00:31:07;0.98;;;0.60;;
26335;SDS011;14047;50.936;4.654;2022-10-16T00:33:34;0.73;;;0.57;;
26335;SDS011;14047;50.936;4.654;2022-10-16T00:36:01;3.95;;;0.95;;
26335;SDS011;14047;50.936;4.654;2022-10-16T00:38:28;7.20;;;0.63;;
26335;SDS011;14047;50.936;4.654;2022-10-16T00:40:56;2.28;;;0.82;;
26335;SDS011;14047;50.936;4.654;2022-10-16T00:43:33;7.55;;;0.80;;
26335;SDS011;14047;50.936;4.654;2022-10-16T00:46:00;6.55;;;0.80;;
26335;SDS011;14047;50.936;4.654;2022-10-16T00:48:27;1.27;;;0.52;;
26335;SDS011;14047;50.936;4.654;2022-10-16T00:50:53;4.85;;;0.70;;
26335;SDS011;14047;50.936;4.654;2022-10-16T00:53:20;2.60;;;0.77;;
26335;SDS011;14047;50.936;4.654;2022-10-16T00:55:46;4.90;;;0.80;;
26335;SDS011;14047;50.936;4.654;2022-10-16T00:58:12;1.00;;;0.68;;
26335;SDS011;14047;50.936;4.654;2022-10-16T01:00:38;3.63;;;0.93;;
26335;SDS011;14047;50.936;4.654;2022-10-16T01:03:22;1.98;;;0.88;;
26335;SDS011;14047;50.936;4.654;2022-10-16T01:06:03;2.50;;;0.75;;
26335;SDS011;14047;50.936;4.654;2022-10-16T01:08:58;1.13;;;0.70;;
26335;SDS011;14047;50.936;4.654;2022-10-16T01:13:58;5.50;;;0.80;;
26335;SDS011;14047;50.936;4.654;2022-10-16T01:19:20;1.05;;;0.80;;
26335;SDS011;14047;50.936;4.654;2022-10-16T01:22:08;0.70;;;0.50;;
26335;SDS011;14047;50.936;4.654;2022-10-16T01:27:10;2.85;;;0.80;;
26335;SDS011;14047;50.936;4.654;2022-10-16T01:29:59;1.60;;;0.80;;
26335;SDS011;14047;50.936;4.654;2022-10-16T01:32:39;3.17;;;0.75;;
26335;SDS011;14047;50.936;4.654;2022-10-16T01:35:53;2.63;;;0.73;;
26335;SDS011;14047;50.936;4.654;2022-10-16T01:38:17;1.33;;;0.80;;
26335;SDS011;14047;50.936;4.654;2022-10-16T01:40:54;2.72;;;0.82;;
26335;SDS011;14047;50.936;4.654;2022-10-16T01:43:26;2.33;;;0.60;;
26335;SDS011;14047;50.936;4.654;2022-10-16T01:46:00;1.70;;;0.95;;
26335;SDS011;14047;50.936;4.654;2022-10-16T01:48:26;4.97;;;0.80;;
26335;SDS011;14047;50.936;4.654;2022-10-16T01:50:55;3.60;;;0.90;;
26335;SDS011;14047;50.936;4.654;2022-10-16T01:53:28;1.70;;;0.88;;
26335;SDS011;14047;50.936;4.654;2022-10-16T01:55:55;5.43;;;1.40;;
26335;SDS011;14047;50.936;4.654;2022-10-16T01:58:25;5.07;;;1.00;;
26335;SDS011;14047;50.936;4.654;2022-10-16T02:00:52;1.92;;;0.90;;
26335;SDS011;14047;50.936;4.654;2022-10-16T02:03:19;1.63;;;0.90;;
26335;SDS011;14047;50.936;4.654;2022-10-16T02:05:47;2.17;;;1.00;;
26335;SDS011;14047;50.936;4.654;2022-10-16T02:08:24;4.43;;;1.08;;
26335;SDS011;14047;50.936;4.654;2022-10-16T02:10:53;1.48;;;0.82;;
26335;SDS011;14047;50.936;4.654;2022-10-16T02:13:33;1.10;;;0.88;;
26335;SDS011;14047;50.936;4.654;2022-10-16T02:16:06;1.90;;;0.90;;
26335;SDS011;14047;50.936;4.654;2022-10-16T02:18:32;3.00;;;1.00;;
26335;SDS011;14047;50.936;4.654;2022-10-16T02:26:07;1.13;;;1.00;;
26335;SDS011;14047;50.936;4.654;2022-10-16T02:28:46;2.97;;;0.98;;
26335;SDS011;14047;50.936;4.654;2022-10-16T02:31:18;1.92;;;0.90;;
26335;SDS011;14047;50.936;4.654;2022-10-16T02:33:51;1.38;;;0.93;;
26335;SDS011;14047;50.936;4.654;2022-10-16T02:36:19;1.73;;;0.90;;
26335;SDS011;14047;50.936;4.654;2022-10-16T02:38:46;1.70;;;1.20;;
26335;SDS011;14047;50.936;4.654;2022-10-16T02:41:12;2.20;;;1.05;;
26335;SDS011;14047;50.936;4.654;2022-10-16T02:43:38;2.35;;;1.10;;
26335;SDS011;14047;50.936;4.654;2022-10-16T02:46:04;2.85;;;1.13;;
26335;SDS011;14047;50.936;4.654;2022-10-16T02:48:31;3.65;;;0.95;;
26335;SDS011;14047;50.936;4.654;2022-10-16T02:50:56;4.22;;;1.00;;
26335;SDS011;14047;50.936;4.654;2022-10-16T02:53:22;2.63;;;1.10;;
26335;SDS011;14047;50.936;4.654;2022-10-16T02:55:51;2.67;;;1.02;;
26335;SDS011;14047;50.936;4.654;2022-10-16T02:58:16;4.95;;;1.20;;
26335;SDS011;14047;50.936;4.654;2022-10-16T03:00:42;5.47;;;1.30;;
26335;SDS011;14047;50.936;4.654;2022-10-16T03:03:08;4.72;;;1.30;;
26335;SDS011;14047;50.936;4.654;2022-10-16T03:05:33;6.03;;;1.10;;
26335;SDS011;14047;50.936;4.654;2022-10-16T03:07:59;4.10;;;1.00;;
26335;SDS011;14047;50.936;4.654;2022-10-16T03:10:25;4.85;;;1.48;;
26335;SDS011;14047;50.936;4.654;2022-10-16T03:12:51;5.13;;;1.10;;
26335;SDS011;14047;50.936;4.654;2022-10-16T03:15:17;5.10;;;1.23;;
26335;SDS011;14047;50.936;4.654;2022-10-16T03:17:43;3.72;;;1.02;;
26335;SDS011;14047;50.936;4.654;2022-10-16T03:20:09;4.70;;;1.05;;
26335;SDS011;14047;50.936;4.654;2022-10-16T03:22:35;2.50;;;1.20;;
26335;SDS011;14047;50.936;4.654;2022-10-16T03:25:00;1.92;;;1.05;;
26335;SDS011;14047;50.936;4.654;2022-10-16T03:27:26;7.30;;;1.30;;
26335;SDS011;14047;50.936;4.654;2022-10-16T03:29:52;1.98;;;1.20;;
26335;SDS011;14047;50.936;4.654;2022-10-16T03:32:20;2.83;;;1.30;;
26335;SDS011;14047;50.936;4.654;2022-10-16T03:34:46;2.35;;;1.05;;
26335;SDS011;14047;50.936;4.654;2022-10-16T03:37:14;3.25;;;1.88;;
26335;SDS011;14047;50.936;4.654;2022-10-16T03:39:40;7.75;;;1.40;;
26335;SDS011;14047;50.936;4.654;2022-10-16T03:42:06;6.50;;;1.50;;
26335;SDS011;14047;50.936;4.654;2022-10-16T03:44:31;6.47;;;1.60;;
26335;SDS011;14047;50.936;4.654;2022-10-16T03:46:57;5.13;;;1.63;;
26335;SDS011;14047;50.936;4.654;2022-10-16T03:49:23;1.58;;;1.27;;
26335;SDS011;14047;50.936;4.654;2022-10-16T03:51:48;7.05;;;1.48;;
26335;SDS011;14047;50.936;4.654;2022-10-16T03:54:14;3.60;;;1.27;;
26335;SDS011;14047;50.936;4.654;2022-10-16T03:56:39;6.40;;;1.63;;
26335;SDS011;14047;50.936;4.654;2022-10-16T03:59:05;5.05;;;1.55;;
26335;SDS011;14047;50.936;4.654;2022-10-16T04:01:31;3.50;;;1.70;;
26335;SDS011;14047;50.936;4.654;2022-10-16T04:03:56;4.45;;;1.55;;
26335;SDS011;14047;50.936;4.654;2022-10-16T04:06:22;2.30;;;1.20;;
26335;SDS011;14047;50.936;4.654;2022-10-16T04:08:48;4.00;;;1.48;;
26335;SDS011;14047;50.936;4.654;2022-10-16T04:11:14;5.20;;;2.00;;
26335;SDS011;14047;50.936;4.654;2022-10-16T04:13:39;4.20;;;1.55;;
26335;SDS011;14047;50.936;4.654;2022-10-16T04:16:06;4.22;;;1.42;;
26335;SDS011;14047;50.936;4.654;2022-10-16T04:18:32;4.63;;;1.50;;
26335;SDS011;14047;50.936;4.654;2022-10-16T04:21:01;2.15;;;1.42;;
26335;SDS011;14047;50.936;4.654;2022-10-16T04:23:28;3.42;;;1.65;;
26335;SDS011;14047;50.936;4.654;2022-10-16T04:25:53;4.35;;;1.35;;
26335;SDS011;14047;50.936;4.654;2022-10-16T04:28:19;4.82;;;1.50;;
26335;SDS011;14047;50.936;4.654;2022-10-16T04:30:45;7.97;;;1.95;;
26335;SDS011;14047;50.936;4.654;2022-10-16T04:33:10;2.67;;;1.48;;
26335;SDS011;14047;50.936;4.654;2022-10-16T04:35:37;1.90;;;1.33;;
26335;SDS011;14047;50.936;4.654;2022-10-16T04:38:03;4.97;;;1.80;;
26335;SDS011;14047;50.936;4.654;2022-10-16T04:40:29;3.08;;;1.40;;
26335;SDS011;14047;50.936;4.654;2022-10-16T04:42:58;5.85;;;1.40;;
26335;SDS011;14047;50.936;4.654;2022-10-16T04:45:24;2.65;;;1.30;;
26335;SDS011;14047;50.936;4.654;2022-10-16T04:47:50;3.17;;;1.70;;
26335;SDS011;14047;50.936;4.654;2022-10-16T04:50:15;3.67;;;1.63;;
26335;SDS011;14047;50.936;4.654;2022-10-16T04:52:41;2.88;;;1.77;;
26335;SDS011;14047;50.936;4.654;2022-10-16T04:55:07;2.33;;;1.60;;
26335;SDS011;14047;50.936;4.654;2022-10-16T04:57:33;4.35;;;1.75;;
26335;SDS011;14047;50.936;4.654;2022-10-16T04:59:59;4.30;;;1.45;;
26335;SDS011;14047;50.936;4.654;2022-10-16T05:02:25;5.95;;;1.75;;
26335;SDS011;14047;50.936;4.654;2022-10-16T05:04:51;4.93;;;1.30;;
26335;SDS011;14047;50.936;4.654;2022-10-16T05:07:17;3.92;;;1.50;;
26335;SDS011;14047;50.936;4.654;2022-10-16T05:09:43;3.08;;;1.67;;
26335;SDS011;14047;50.936;4.654;2022-10-16T05:12:08;2.90;;;1.67;;
26335;SDS011;14047;50.936;4.654;2022-10-16T05:14:34;3.83;;;1.40;;
26335;SDS011;14047;50.936;4.654;2022-10-16T05:16:59;3.33;;;1.40;;
26335;SDS011;14047;50.936;4.654;2022-10-16T05:19:25;7.60;;;1.50;;
26335;SDS011;14047;50.936;4.654;2022-10-16T05:21:51;2.95;;;1.80;;
26335;SDS011;14047;50.936;4.654;2022-10-16T05:24:16;5.80;;;1.60;;
26335;SDS011;14047;50.936;4.654;2022-10-16T05:26:42;2.75;;;1.70;;
26335;SDS011;14047;50.936;4.654;2022-10-16T05:29:08;2.75;;;1.67;;
26335;SDS011;14047;50.936;4.654;2022-10-16T05:31:34;3.78;;;1.52;;
26335;SDS011;14047;50.936;4.654;2022-10-16T05:34:00;3.20;;;1.58;;
26335;SDS011;14047;50.936;4.654;2022-10-16T05:36:26;5.35;;;1.80;;
26335;SDS011;14047;50.936;4.654;2022-10-16T05:38:52;4.90;;;1.75;;
26335;SDS011;14047;50.936;4.654;2022-10-16T05:41:17;7.30;;;2.22;;
26335;SDS011;14047;50.936;4.654;2022-10-16T05:43:47;7.72;;;1.75;;
26335;SDS011;14047;50.936;4.654;2022-10-16T05:46:13;6.82;;;2.00;;
26335;SDS011;14047;50.936;4.654;2022-10-16T05:48:39;6.93;;;1.95;;
26335;SDS011;14047;50.936;4.654;2022-10-16T05:51:06;6.47;;;1.90;;
26335;SDS011;14047;50.936;4.654;2022-10-16T05:53:36;11.63;;;2.47;;
26335;SDS011;14047;50.936;4.654;2022-10-16T05:56:04;3.58;;;2.00;;
26335;SDS011;14047;50.936;4.654;2022-10-16T05:58:31;7.05;;;2.17;;
26335;SDS011;14047;50.936;4.654;2022-10-16T06:01:06;4.93;;;1.55;;
26335;SDS011;14047;50.936;4.654;2022-10-16T06:03:34;5.35;;;1.90;;
26335;SDS011;14047;50.936;4.654;2022-10-16T06:06:06;14.13;;;1.80;;
26335;SDS011;14047;50.936;4.654;2022-10-16T06:08:33;7.30;;;1.60;;
26335;SDS011;14047;50.936;4.654;2022-10-16T06:11:02;3.72;;;1.70;;
26335;SDS011;14047;50.936;4.654;2022-10-16T06:13:32;5.75;;;1.65;;
26335;SDS011;14047;50.936;4.654;2022-10-16T06:15:59;6.07;;;1.88;;
26335;SDS011;14047;50.936;4.654;2022-10-16T06:18:26;3.67;;;1.70;;
26335;SDS011;14047;50.936;4.654;2022-10-16T06:20:52;7.18;;;1.48;;
26335;SDS011;14047;50.936;4.654;2022-10-16T06:23:18;7.75;;;2.78;;
26335;SDS011;14047;50.936;4.654;2022-10-16T06:25:43;8.02;;;1.67;;
26335;SDS011;14047;50.936;4.654;2022-10-16T06:28:09;3.17;;;1.65;;
26335;SDS011;14047;50.936;4.654;2022-10-16T06:30:35;7.55;;;1.85;;
26335;SDS011;14047;50.936;4.654;2022-10-16T06:33:00;5.68;;;2.03;;
26335;SDS011;14047;50.936;4.654;2022-10-16T06:35:26;4.07;;;1.83;;
26335;SDS011;14047;50.936;4.654;2022-10-16T06:37:52;23.13;;;2.50;;
26335;SDS011;14047;50.936;4.654;2022-10-16T06:40:18;4.82;;;1.90;;
26335;SDS011;14047;50.936;4.654;2022-10-16T06:42:44;4.47;;;1.90;;
26335;SDS011;14047;50.936;4.654;2022-10-16T06:45:10;3.75;;;1.70;;
26335;SDS011;14047;50.936;4.654;2022-10-16T06:47:35;5.63;;;1.50;;
26335;SDS011;14047;50.936;4.654;2022-10-16T06:50:01;6.85;;;1.98;;
26335;SDS011;14047;50.936;4.654;2022-10-16T06:52:28;7.68;;;1.70;;
26335;SDS011;14047;50.936;4.654;2022-10-16T06:54:54;6.93;;;1.85;;
26335;SDS011;14047;50.936;4.654;2022-10-16T06:57:19;2.17;;;1.40;;
26335;SDS011;14047;50.936;4.654;2022-10-16T06:59:45;3.28;;;1.77;;
26335;SDS011;14047;50.936;4.654;2022-10-16T07:02:11;7.53;;;1.75;;
26335;SDS011;14047;50.936;4.654;2022-10-16T07:04:36;3.55;;;1.90;;
26335;SDS011;14047;50.936;4.654;2022-10-16T07:07:02;3.25;;;1.70;;
26335;SDS011;14047;50.936;4.654;2022-10-16T07:09:28;4.53;;;1.60;;
26335;SDS011;14047;50.936;4.654;2022-10-16T07:11:53;7.57;;;2.22;;
26335;SDS011;14047;50.936;4.654;2022-10-16T07:14:20;4.07;;;1.63;;
26335;SDS011;14047;50.936;4.654;2022-10-16T07:16:46;3.97;;;1.77;;
26335;SDS011;14047;50.936;4.654;2022-10-16T07:19:13;2.70;;;1.58;;
26335;SDS011;14047;50.936;4.654;2022-10-16T07:21:40;3.58;;;1.60;;
26335;SDS011;14047;50.936;4.654;2022-10-16T07:24:07;5.38;;;1.80;;
26335;SDS011;14047;50.936;4.654;2022-10-16T07:26:37;6.85;;;1.83;;
26335;SDS011;14047;50.936;4.654;2022-10-16T07:29:04;4.45;;;1.35;;
26335;SDS011;14047;50.936;4.654;2022-10-16T07:31:32;2.92;;;1.30;;
26335;SDS011;14047;50.936;4.654;2022-10-16T07:33:58;5.15;;;1.50;;
26335;SDS011;14047;50.936;4.654;2022-10-16T07:36:25;2.58;;;1.20;;
26335;SDS011;14047;50.936;4.654;2022-10-16T07:38:50;4.70;;;1.35;;
26335;SDS011;14047;50.936;4.654;2022-10-16T07:41:17;1.88;;;1.38;;
26335;SDS011;14047;50.936;4.654;2022-10-16T07:43:47;4.15;;;1.20;;
26335;SDS011;14047;50.936;4.654;2022-10-16T07:46:14;5.53;;;1.75;;
26335;SDS011;14047;50.936;4.654;2022-10-16T07:48:41;2.42;;;1.40;;
26335;SDS011;14047;50.936;4.654;2022-10-16T07:51:10;5.50;;;1.42;;
26335;SDS011;14047;50.936;4.654;2022-10-16T07:53:40;4.60;;;1.90;;
26335;SDS011;14047;50.936;4.654;2022-10-16T07:56:06;4.25;;;1.67;;
26335;SDS011;14047;50.936;4.654;2022-10-16T07:58:33;1.42;;;1.02;;
26335;SDS011;14047;50.936;4.654;2022-10-16T08:01:06;5.82;;;1.40;;
26335;SDS011;14047;50.936;4.654;2022-10-16T08:03:33;4.00;;;1.27;;
26335;SDS011;14047;50.936;4.654;2022-10-16T08:05:59;3.45;;;1.00;;
26335;SDS011;14047;50.936;4.654;2022-10-16T08:08:26;7.60;;;1.70;;
26335;SDS011;14047;50.936;4.654;2022-10-16T08:10:52;12.93;;;2.22;;
26335;SDS011;14047;50.936;4.654;2022-10-16T08:13:18;3.47;;;1.17;;
26335;SDS011;14047;50.936;4.654;2022-10-16T08:15:44;4.70;;;1.20;;
26335;SDS011;14047;50.936;4.654;2022-10-16T08:18:10;5.35;;;1.23;;
26335;SDS011;14047;50.936;4.654;2022-10-16T08:20:37;3.95;;;1.05;;
26335;SDS011;14047;50.936;4.654;2022-10-16T08:23:04;5.22;;;0.95;;
26335;SDS011;14047;50.936;4.654;2022-10-16T08:25:30;5.88;;;1.23;;
26335;SDS011;14047;50.936;4.654;2022-10-16T08:27:59;6.43;;;1.52;;
26335;SDS011;14047;50.936;4.654;2022-10-16T08:30:25;7.47;;;1.15;;
26335;SDS011;14047;50.936;4.654;2022-10-16T08:32:50;5.50;;;0.80;;
26335;SDS011;14047;50.936;4.654;2022-10-16T08:35:16;4.47;;;2.10;;
26335;SDS011;14047;50.936;4.654;2022-10-16T08:37:42;4.85;;;1.05;;
26335;SDS011;14047;50.936;4.654;2022-10-16T08:40:50;7.25;;;1.10;;
26335;SDS011;14047;50.936;4.654;2022-10-16T08:43:06;4.65;;;0.98;;
26335;SDS011;14047;50.936;4.654;2022-10-16T08:48:57;3.63;;;1.00;;
26335;SDS011;14047;50.936;4.654;2022-10-16T08:51:25;2.53;;;1.08;;
26335;SDS011;14047;50.936;4.654;2022-10-16T08:53:58;3.42;;;0.95;;
26335;SDS011;14047;50.936;4.654;2022-10-16T08:56:29;3.38;;;0.80;;
26335;SDS011;14047;50.936;4.654;2022-10-16T08:58:57;7.80;;;1.00;;
26335;SDS011;14047;50.936;4.654;2022-10-16T09:01:23;2.33;;;0.73;;
26335;SDS011;14047;50.936;4.654;2022-10-16T09:20:12;3.30;;;0.95;;
26335;SDS011;14047;50.936;4.654;2022-10-16T09:23:18;4.05;;;0.85;;
26335;SDS011;14047;50.936;4.654;2022-10-16T09:25:52;5.28;;;0.85;;
26335;SDS011;14047;50.936;4.654;2022-10-16T09:28:19;8.02;;;1.00;;
26335;SDS011;14047;50.936;4.654;2022-10-16T09:30:45;2.95;;;0.77;;
26335;SDS011;14047;50.936;4.654;2022-10-16T09:33:14;6.75;;;1.05;;
26335;SDS011;14047;50.936;4.654;2022-10-16T09:35:43;3.70;;;1.00;;
26335;SDS011;14047;50.936;4.654;2022-10-16T09:38:20;5.43;;;1.00;;
26335;SDS011;14047;50.936;4.654;2022-10-16T09:40:48;4.40;;;1.00;;
26335;SDS011;14047;50.936;4.654;2022-10-16T09:46:06;4.15;;;1.27;;
26335;SDS011;14047;50.936;4.654;2022-10-16T09:48:37;4.20;;;1.15;;
26335;SDS011;14047;50.936;4.654;2022-10-16T09:56:40;7.57;;;0.77;;
26335;SDS011;14047;50.936;4.654;2022-10-16T10:01:44;5.20;;;1.00;;
26335;SDS011;14047;50.936;4.654;2022-10-16T10:04:16;5.20;;;1.20;;
26335;SDS011;14047;50.936;4.654;2022-10-16T10:11:56;4.20;;;0.95;;
26335;SDS011;14047;50.936;4.654;2022-10-16T10:14:34;3.45;;;1.10;;
26335;SDS011;14047;50.936;4.654;2022-10-16T10:17:08;5.97;;;1.75;;
26335;SDS011;14047;50.936;4.654;2022-10-16T10:19:50;4.30;;;0.90;;
26335;SDS011;14047;50.936;4.654;2022-10-16T10:27:39;3.55;;;1.00;;
26335;SDS011;14047;50.936;4.654;2022-10-16T10:38:54;6.22;;;1.30;;
26335;SDS011;14047;50.936;4.654;2022-10-16T10:44:23;3.22;;;0.80;;
26335;SDS011;14047;50.936;4.654;2022-10-16T10:55:56;9.00;;;0.95;;
26335;SDS011;14047;50.936;4.654;2022-10-16T11:04:16;5.15;;;0.80;;
26335;SDS011;14047;50.936;4.654;2022-10-16T11:07:02;5.43;;;0.80;;
26335;SDS011;14047;50.936;4.654;2022-10-16T11:12:10;6.40;;;0.90;;
26335;SDS011;14047;50.936;4.654;2022-10-16T11:14:42;3.55;;;0.70;;
26335;SDS011;14047;50.936;4.654;2022-10-16T11:17:32;6.07;;;0.93;;
26335;SDS011;14047;50.936;4.654;2022-10-16T11:25:49;6.75;;;0.60;;
26335;SDS011;14047;50.936;4.654;2022-10-16T11:30:57;5.72;;;0.70;;
26335;SDS011;14047;50.936;4.654;2022-10-16T11:33:37;4.90;;;1.08;;
26335;SDS011;14047;50.936;4.654;2022-10-16T11:36:12;4.47;;;0.80;;
26335;SDS011;14047;50.936;4.654;2022-10-16T11:41:49;2.35;;;0.70;;
26335;SDS011;14047;50.936;4.654;2022-10-16T11:47:01;7.57;;;1.02;;
26335;SDS011;14047;50.936;4.654;2022-10-16T11:49:35;2.67;;;0.75;;
26335;SDS011;14047;50.936;4.654;2022-10-16T11:52:10;4.03;;;0.77;;
26335;SDS011;14047;50.936;4.654;2022-10-16T11:54:52;8.70;;;0.88;;
26335;SDS011;14047;50.936;4.654;2022-10-16T11:57:40;4.72;;;0.70;;
26335;SDS011;14047;50.936;4.654;2022-10-16T12:00:23;6.32;;;0.88;;
26335;SDS011;14047;50.936;4.654;2022-10-16T12:02:58;3.75;;;0.80;;
26335;SDS011;14047;50.936;4.654;2022-10-16T12:08:13;2.55;;;0.50;;
26335;SDS011;14047;50.936;4.654;2022-10-16T12:10:41;2.67;;;0.80;;
26335;SDS011;14047;50.936;4.654;2022-10-16T12:18:41;7.07;;;0.52;;
26335;SDS011;14047;50.936;4.654;2022-10-16T12:21:11;3.05;;;0.40;;
26335;SDS011;14047;50.936;4.654;2022-10-16T12:23:50;3.50;;;0.50;;
26335;SDS011;14047;50.936;4.654;2022-10-16T12:26:25;2.47;;;0.82;;
26335;SDS011;14047;50.936;4.654;2022-10-16T12:28:52;4.68;;;0.68;;
26335;SDS011;14047;50.936;4.654;2022-10-16T12:31:19;2.25;;;0.47;;
26335;SDS011;14047;50.936;4.654;2022-10-16T12:34:03;2.10;;;0.55;;
26335;SDS011;14047;50.936;4.654;2022-10-16T12:36:32;1.63;;;0.60;;
26335;SDS011;14047;50.936;4.654;2022-10-16T12:39:02;3.75;;;0.82;;
26335;SDS011;14047;50.936;4.654;2022-10-16T12:41:29;3.22;;;0.73;;
26335;SDS011;14047;50.936;4.654;2022-10-16T12:44:00;5.05;;;0.70;;
26335;SDS011;14047;50.936;4.654;2022-10-16T12:51:39;3.45;;;0.93;;
26335;SDS011;14047;50.936;4.654;2022-10-16T13:00:02;3.58;;;0.73;;
26335;SDS011;14047;50.936;4.654;2022-10-16T13:14:14;4.50;;;0.70;;
26335;SDS011;14047;50.936;4.654;2022-10-16T13:22:31;3.00;;;0.70;;
26335;SDS011;14047;50.936;4.654;2022-10-16T13:27:32;3.20;;;0.75;;
26335;SDS011;14047;50.936;4.654;2022-10-16T13:30:29;2.50;;;0.75;;
26335;SDS011;14047;50.936;4.654;2022-10-16T13:33:00;2.65;;;0.40;;
26335;SDS011;14047;50.936;4.654;2022-10-16T13:35:30;2.10;;;0.73;;
26335;SDS011;14047;50.936;4.654;2022-10-16T13:38:04;3.95;;;0.60;;
26335;SDS011;14047;50.936;4.654;2022-10-16T13:40:30;3.60;;;0.63;;
26335;SDS011;14047;50.936;4.654;2022-10-16T13:42:56;2.20;;;0.40;;
26335;SDS011;14047;50.936;4.654;2022-10-16T13:45:25;2.97;;;0.57;;
26335;SDS011;14047;50.936;4.654;2022-10-16T13:48:01;3.70;;;0.75;;
26335;SDS011;14047;50.936;4.654;2022-10-16T13:50:28;3.05;;;0.60;;
26335;SDS011;14047;50.936;4.654;2022-10-16T13:53:03;2.50;;;0.60;;
26335;SDS011;14047;50.936;4.654;2022-10-16T13:55:37;5.95;;;0.88;;
26335;SDS011;14047;50.936;4.654;2022-10-16T13:58:07;5.05;;;0.65;;
26335;SDS011;14047;50.936;4.654;2022-10-16T14:00:37;3.22;;;0.57;;
26335;SDS011;14047;50.936;4.654;2022-10-16T14:03:07;2.83;;;0.80;;
26335;SDS011;14047;50.936;4.654;2022-10-16T14:05:48;6.82;;;0.90;;
26335;SDS011;14047;50.936;4.654;2022-10-16T14:08:16;4.35;;;0.70;;
26335;SDS011;14047;50.936;4.654;2022-10-16T14:10:41;4.63;;;0.80;;
26335;SDS011;14047;50.936;4.654;2022-10-16T14:13:07;1.77;;;0.82;;
26335;SDS011;14047;50.936;4.654;2022-10-16T14:15:39;7.75;;;1.15;;
26335;SDS011;14047;50.936;4.654;2022-10-16T14:18:05;4.43;;;0.80;;
26335;SDS011;14047;50.936;4.654;2022-10-16T14:20:31;2.95;;;0.80;;
26335;SDS011;14047;50.936;4.654;2022-10-16T14:23:00;2.10;;;0.57;;
26335;SDS011;14047;50.936;4.654;2022-10-16T14:25:43;3.78;;;0.70;;
26335;SDS011;14047;50.936;4.654;2022-10-16T14:30:52;2.97;;;0.75;;
26335;SDS011;14047;50.936;4.654;2022-10-16T14:33:20;5.80;;;1.10;;
26335;SDS011;14047;50.936;4.654;2022-10-16T14:35:59;4.22;;;1.08;;
26335;SDS011;14047;50.936;4.654;2022-10-16T14:38:34;4.22;;;1.05;;
26335;SDS011;14047;50.936;4.654;2022-10-16T14:41:00;3.20;;;0.70;;
26335;SDS011;14047;50.936;4.654;2022-10-16T14:46:11;3.42;;;0.93;;
26335;SDS011;14047;50.936;4.654;2022-10-16T14:48:48;4.40;;;0.90;;
26335;SDS011;14047;50.936;4.654;2022-10-16T14:51:19;5.25;;;0.90;;
26335;SDS011;14047;50.936;4.654;2022-10-16T14:53:45;4.20;;;1.15;;
26335;SDS011;14047;50.936;4.654;2022-10-16T14:56:18;6.95;;;1.00;;
26335;SDS011;14047;50.936;4.654;2022-10-16T14:58:46;4.72;;;0.80;;
26335;SDS011;14047;50.936;4.654;2022-10-16T15:01:12;3.95;;;1.00;;
26335;SDS011;14047;50.936;4.654;2022-10-16T15:03:38;4.97;;;1.15;;
26335;SDS011;14047;50.936;4.654;2022-10-16T15:06:08;2.85;;;0.90;;
26335;SDS011;14047;50.936;4.654;2022-10-16T15:08:40;5.15;;;1.25;;
26335;SDS011;14047;50.936;4.654;2022-10-16T15:11:12;2.38;;;0.90;;
26335;SDS011;14047;50.936;4.654;2022-10-16T15:13:40;4.40;;;1.05;;
26335;SDS011;14047;50.936;4.654;2022-10-16T15:16:10;5.30;;;1.00;;
26335;SDS011;14047;50.936;4.654;2022-10-16T15:18:37;3.45;;;1.80;;
26335;SDS011;14047;50.936;4.654;2022-10-16T15:21:03;6.57;;;1.48;;
26335;SDS011;14047;50.936;4.654;2022-10-16T15:23:29;3.35;;;1.33;;
26335;SDS011;14047;50.936;4.654;2022-10-16T15:25:55;3.88;;;1.42;;
26335;SDS011;14047;50.936;4.654;2022-10-16T15:28:22;5.22;;;1.60;;
26335;SDS011;14047;50.936;4.654;2022-10-16T15:30:49;5.88;;;1.50;;
26335;SDS011;14047;50.936;4.654;2022-10-16T15:33:22;4.68;;;1.20;;
26335;SDS011;14047;50.936;4.654;2022-10-16T15:35:51;5.25;;;1.20;;
26335;SDS011;14047;50.936;4.654;2022-10-16T15:38:18;4.53;;;1.40;;
26335;SDS011;14047;50.936;4.654;2022-10-16T15:40:46;6.40;;;1.65;;
26335;SDS011;14047;50.936;4.654;2022-10-16T15:43:13;3.70;;;1.30;;
26335;SDS011;14047;50.936;4.654;2022-10-16T15:45:38;5.05;;;1.17;;
26335;SDS011;14047;50.936;4.654;2022-10-16T15:48:05;3.38;;;0.95;;
26335;SDS011;14047;50.936;4.654;2022-10-16T15:50:31;2.13;;;0.95;;
26335;SDS011;14047;50.936;4.654;2022-10-16T15:52:57;3.63;;;0.93;;
26335;SDS011;14047;50.936;4.654;2022-10-16T15:55:23;4.57;;;0.70;;
26335;SDS011;14047;50.936;4.654;2022-10-16T15:57:49;5.35;;;1.20;;
26335;SDS011;14047;50.936;4.654;2022-10-16T16:00:16;2.63;;;1.10;;
26335;SDS011;14047;50.936;4.654;2022-10-16T16:02:49;3.70;;;0.90;;
26335;SDS011;14047;50.936;4.654;2022-10-16T16:05:16;3.58;;;1.00;;
26335;SDS011;14047;50.936;4.654;2022-10-16T16:07:42;3.58;;;1.10;;
26335;SDS011;14047;50.936;4.654;2022-10-16T16:10:09;4.47;;;1.10;;
26335;SDS011;14047;50.936;4.654;2022-10-16T16:12:36;3.03;;;1.13;;
26335;SDS011;14047;50.936;4.654;2022-10-16T16:15:02;5.43;;;1.20;;
26335;SDS011;14047;50.936;4.654;2022-10-16T16:17:30;6.65;;;1.05;;
26335;SDS011;14047;50.936;4.654;2022-10-16T16:19:56;2.90;;;1.15;;
26335;SDS011;14047;50.936;4.654;2022-10-16T16:22:21;4.90;;;1.30;;
26335;SDS011;14047;50.936;4.654;2022-10-16T16:24:47;6.18;;;1.25;;
26335;SDS011;14047;50.936;4.654;2022-10-16T16:27:13;4.20;;;1.20;;
26335;SDS011;14047;50.936;4.654;2022-10-16T16:29:38;3.72;;;1.00;;
26335;SDS011;14047;50.936;4.654;2022-10-16T16:32:05;2.13;;;0.95;;
26335;SDS011;14047;50.936;4.654;2022-10-16T16:34:31;2.08;;;1.00;;
26335;SDS011;14047;50.936;4.654;2022-10-16T16:36:57;3.97;;;1.15;;
26335;SDS011;14047;50.936;4.654;2022-10-16T16:39:23;3.80;;;1.60;;
26335;SDS011;14047;50.936;4.654;2022-10-16T16:41:49;7.32;;;1.02;;
26335;SDS011;14047;50.936;4.654;2022-10-16T16:44:15;6.20;;;1.20;;
26335;SDS011;14047;50.936;4.654;2022-10-16T16:46:41;4.82;;;1.27;;
26335;SDS011;14047;50.936;4.654;2022-10-16T16:49:11;5.35;;;1.30;;
26335;SDS011;14047;50.936;4.654;2022-10-16T16:51:38;8.45;;;0.95;;
26335;SDS011;14047;50.936;4.654;2022-10-16T16:54:04;5.57;;;1.02;;
26335;SDS011;14047;50.936;4.654;2022-10-16T16:56:31;4.22;;;1.02;;
26335;SDS011;14047;50.936;4.654;2022-10-16T16:58:57;3.83;;;1.23;;
26335;SDS011;14047;50.936;4.654;2022-10-16T17:01:24;12.68;;;1.42;;
26335;SDS011;14047;50.936;4.654;2022-10-16T17:03:51;2.97;;;0.90;;
26335;SDS011;14047;50.936;4.654;2022-10-16T17:06:19;6.43;;;1.30;;
26335;SDS011;14047;50.936;4.654;2022-10-16T17:08:45;6.97;;;1.42;;
26335;SDS011;14047;50.936;4.654;2022-10-16T17:11:15;6.35;;;1.38;;
26335;SDS011;14047;50.936;4.654;2022-10-16T17:13:43;7.15;;;3.22;;
26335;SDS011;14047;50.936;4.654;2022-10-16T17:16:09;6.13;;;1.08;;
26335;SDS011;14047;50.936;4.654;2022-10-16T17:18:35;4.63;;;1.25;;
26335;SDS011;14047;50.936;4.654;2022-10-16T17:21:05;13.60;;;1.95;;